createdAt,value
2022-12-16T00:01:54.951Z,100523.88
2022-12-16T00:04:25.085Z,100536.69
2022-12-16T00:06:54.888Z,100531.31
2022-12-16T00:09:24.886Z,100541.41
2022-12-16T00:11:54.775Z,100545.13
2022-12-16T00:14:24.913Z,100552.34
2022-12-16T00:16:54.948Z,100554.88
2022-12-16T00:19:24.950Z,100548.44
2022-12-16T00:21:54.890Z,100558.53
2022-12-16T00:24:24.941Z,100570.50
2022-12-16T00:26:54.711Z,100562.44
2022-12-16T00:29:24.977Z,100566.53
2022-12-16T00:31:54.761Z,100572.50
2022-12-16T00:34:24.383Z,100567.13
2022-12-16T00:36:54.219Z,100567.13
2022-12-16T00:39:24.433Z,100565.09
2022-12-16T00:41:54.000Z,100563.03
2022-12-16T00:44:24.943Z,100557.47
2022-12-16T00:46:55.048Z,100565.53
2022-12-16T00:49:25.128Z,100562.00
2022-12-16T00:51:54.853Z,100560.16
2022-12-16T00:54:25.452Z,100556.44
2022-12-16T00:56:53.894Z,100562.84
2022-12-16T00:59:22.437Z,100560.16
2022-12-16T01:01:50.867Z,100555.81
2022-12-16T01:04:19.183Z,100557.47
2022-12-16T01:06:47.948Z,100553.13
2022-12-16T01:09:16.047Z,100560.34
2022-12-16T01:11:44.768Z,100562.00
2022-12-16T01:14:12.087Z,100569.03
2022-12-16T01:16:40.485Z,100563.28
2022-12-16T01:19:09.267Z,100568.63
2022-12-16T01:21:38.934Z,100565.31
2022-12-16T01:24:11.570Z,100572.56
2022-12-16T01:26:41.747Z,100569.03
2022-12-16T01:29:11.801Z,100559.31
2022-12-16T01:31:41.884Z,100566.72
2022-12-16T01:34:11.996Z,100563.22
2022-12-16T01:36:42.022Z,100566.94
2022-12-16T01:39:12.571Z,100560.72
2022-12-16T01:41:42.571Z,100560.72
2022-12-16T01:44:30.743Z,100566.09
2022-12-16T01:47:07.021Z,100569.00
2022-12-16T01:49:46.127Z,100564.69
2022-12-16T01:52:30.453Z,100569.22
2022-12-16T01:55:16.000Z,100565.91
2022-12-16T01:58:05.520Z,100562.59
2022-12-16T02:00:40.601Z,100566.31
2022-12-16T02:03:11.831Z,100560.09
2022-12-16T02:05:47.083Z,100561.13
2022-12-16T02:08:20.150Z,100561.75
2022-12-16T02:11:10.863Z,100556.56
2022-12-16T02:14:00.451Z,100553.44
2022-12-16T02:16:33.546Z,100557.16
2022-12-16T02:19:40.113Z,100551.97
2022-12-16T02:22:27.891Z,100554.66
2022-12-16T02:25:29.798Z,100548.47
2022-12-16T02:28:36.107Z,100555.31
2022-12-16T02:32:00.763Z,100554.47
2022-12-16T02:35:22.942Z,100553.25
2022-12-16T02:38:21.466Z,100550.56
2022-12-16T02:41:17.660Z,100547.06
2022-12-16T02:44:12.192Z,100552.63
2022-12-16T02:46:55.377Z,100550.97
2022-12-16T02:49:25.458Z,100547.66
2022-12-16T02:52:01.927Z,100548.66
2022-12-16T02:54:32.323Z,100545.16
2022-12-16T02:57:41.457Z,100548.88
2022-12-16T03:00:21.613Z,100548.88
2022-12-16T03:03:02.175Z,100538.50
2022-12-16T03:05:48.406Z,100540.56
2022-12-16T03:08:36.898Z,100534.53
2022-12-16T03:11:10.897Z,100534.53
2022-12-16T03:13:54.796Z,100541.78
2022-12-16T03:16:31.987Z,100544.63
2022-12-16T03:19:11.842Z,100538.63
2022-12-16T03:22:02.891Z,100532.44
2022-12-16T03:24:34.577Z,100528.72
2022-12-16T03:27:49.962Z,100530.78
2022-12-16T03:30:30.084Z,100525.63
2022-12-16T03:33:19.553Z,100529.31
2022-12-16T03:36:19.506Z,100525.81
2022-12-16T03:38:53.803Z,100524.97
2022-12-16T03:41:26.717Z,100516.28
2022-12-16T03:43:57.306Z,100513.59
2022-12-16T03:46:27.945Z,100518.97
2022-12-16T03:48:58.114Z,100521.00
2022-12-16T03:51:28.156Z,100522.66
2022-12-16T03:53:58.210Z,100525.56
2022-12-16T03:56:28.361Z,100531.09
2022-12-16T03:58:58.797Z,100525.75
2022-12-16T04:01:28.946Z,100535.66
2022-12-16T04:03:59.178Z,100527.78
2022-12-16T04:06:29.562Z,100529.84
2022-12-16T04:09:02.514Z,100540.38
2022-12-16T04:11:51.330Z,100539.53
2022-12-16T04:14:53.548Z,100539.53
2022-12-16T04:17:41.535Z,100546.13
2022-12-16T04:20:38.538Z,100544.47
2022-12-16T04:23:28.961Z,100545.47
2022-12-16T04:25:59.672Z,100551.66
2022-12-16T04:28:30.325Z,100558.88
2022-12-16T04:31:00.756Z,100552.69
2022-12-16T04:33:50.525Z,100561.97
2022-12-16T04:36:39.258Z,100559.28
2022-12-16T04:39:28.025Z,100561.16
2022-12-16T04:42:17.258Z,100565.88
2022-12-16T04:45:06.071Z,100559.00
2022-12-16T04:47:57.506Z,100558.19
2022-12-16T04:50:46.508Z,100552.00
2022-12-16T04:53:35.436Z,100557.72
2022-12-16T04:56:24.950Z,100555.03
2022-12-16T04:59:14.183Z,100563.31
2022-12-16T05:02:03.441Z,100564.13
2022-12-16T05:04:52.067Z,100566.81
2022-12-16T05:07:40.785Z,100558.75
2022-12-16T05:10:29.217Z,100564.13
2022-12-16T05:13:17.742Z,100564.94
2022-12-16T05:16:06.312Z,100565.78
2022-12-16T05:18:54.877Z,100569.66
2022-12-16T05:21:43.337Z,100563.88
2022-12-16T05:24:32.122Z,100574.59
2022-12-16T05:27:20.752Z,100563.88
2022-12-16T05:30:07.659Z,100568.59
2022-12-16T05:32:54.546Z,100569.25
2022-12-16T05:35:44.555Z,100573.56
2022-12-16T05:38:32.992Z,100577.91
2022-12-16T05:41:21.651Z,100573.56
2022-12-16T05:44:10.247Z,100577.06
2022-12-16T05:46:58.997Z,100576.44
2022-12-16T05:49:47.819Z,100589.03
2022-12-16T05:52:36.632Z,100591.69
2022-12-16T05:55:30.507Z,100593.56
2022-12-16T05:58:22.467Z,100591.06
2022-12-16T06:01:11.284Z,100602.44
2022-12-16T06:04:00.180Z,100602.44
2022-12-16T06:06:48.390Z,100607.63
2022-12-16T06:09:36.852Z,100614.84
2022-12-16T06:12:27.325Z,100621.84
2022-12-16T06:15:15.878Z,100629.06
2022-12-16T06:18:09.902Z,100630.94
2022-12-16T06:20:58.985Z,100645.16
2022-12-16T06:23:47.766Z,100650.72
2022-12-16T06:26:36.342Z,100656.06
2022-12-16T06:29:22.111Z,100659.78
2022-12-16T06:32:10.865Z,100660.78
2022-12-16T06:34:59.597Z,100660.97
2022-12-16T06:37:47.900Z,100669.03
2022-12-16T06:40:36.437Z,100669.22
2022-12-16T06:43:24.937Z,100673.72
2022-12-16T06:46:10.945Z,100675.59
2022-12-16T06:48:59.624Z,100680.13
2022-12-16T06:51:48.110Z,100685.50
2022-12-16T06:54:36.821Z,100696.41
2022-12-16T06:57:25.624Z,100692.91
2022-12-16T07:00:14.006Z,100700.75
2022-12-16T07:03:02.648Z,100702.22
2022-12-16T07:05:51.082Z,100698.72
2022-12-16T07:08:39.680Z,100703.06
2022-12-16T07:11:27.930Z,100701.41
2022-12-16T07:14:16.694Z,100713.78
2022-12-16T07:17:05.207Z,100719.97
2022-12-16T07:19:53.688Z,100731.34
2022-12-16T07:22:42.260Z,100732.84
2022-12-16T07:25:30.756Z,100733.69
2022-12-16T07:28:17.517Z,100734.31
2022-12-16T07:31:05.965Z,100745.88
2022-12-16T07:33:54.593Z,100748.38
2022-12-16T07:36:43.142Z,100749.38
2022-12-16T07:39:31.909Z,100765.31
2022-12-16T07:42:20.624Z,100766.50
2022-12-16T07:45:09.056Z,100778.25
2022-12-16T07:48:06.006Z,100779.72
2022-12-16T07:50:57.916Z,100779.84
2022-12-16T07:53:47.414Z,100786.84
2022-12-16T07:56:35.943Z,100790.44
2022-12-16T07:59:24.564Z,100797.75
2022-12-16T08:02:13.203Z,100788.78
2022-12-16T08:05:01.587Z,100784.53
2022-12-16T08:07:50.186Z,100801.09
2022-12-16T08:10:38.873Z,100798.03
2022-12-16T08:13:27.381Z,100803.69
2022-12-16T08:16:16.174Z,100817.19
2022-12-16T08:19:10.700Z,100809.22
2022-12-16T08:21:59.818Z,100813.47
2022-12-16T08:28:10.548Z,100817.38
2022-12-16T08:30:59.668Z,100820.78
2022-12-16T08:33:48.372Z,100813.88
2022-12-16T08:36:37.030Z,100819.31
2022-12-16T08:39:25.778Z,100818.94
2022-12-16T08:42:16.200Z,100819.78
2022-12-16T08:45:04.669Z,100832.47
2022-12-16T08:47:53.412Z,100817.03
2022-12-16T08:50:42.423Z,100816.06
2022-12-16T08:53:31.241Z,100824.00
2022-12-16T08:56:19.950Z,100823.41
2022-12-16T08:59:08.452Z,100822.22
2022-12-16T09:01:57.594Z,100820.78
2022-12-16T09:04:46.040Z,100827.25
2022-12-16T09:07:32.619Z,100822.03
2022-12-16T09:10:21.638Z,100824.81
2022-12-16T09:13:10.642Z,100829.38
2022-12-16T09:15:59.250Z,100833.22
2022-12-16T09:18:48.176Z,100836.03
2022-12-16T09:21:36.572Z,100843.34
2022-12-16T09:24:25.397Z,100845.09
2022-12-16T09:27:14.411Z,100843.53
2022-12-16T09:30:03.023Z,100840.31
2022-12-16T09:32:53.742Z,100845.63
2022-12-16T09:35:43.298Z,100847.41
2022-12-16T09:38:32.664Z,100848.25
2022-12-16T09:41:45.482Z,100847.56
2022-12-16T09:45:09.437Z,100845.38
2022-12-16T09:48:39.766Z,100847.97
2022-12-16T09:51:32.871Z,100847.81
2022-12-16T09:54:23.652Z,100847.09
2022-12-16T09:57:12.155Z,100848.00
2022-12-16T10:00:16.112Z,100844.84
2022-12-16T10:03:09.794Z,100846.69
2022-12-16T10:06:52.275Z,100848.00
2022-12-16T10:10:31.045Z,100848.00
2022-12-16T10:13:28.125Z,100849.19
2022-12-16T10:16:51.545Z,100845.28
2022-12-16T10:20:53.680Z,100842.56
2022-12-16T10:24:06.973Z,100842.63
2022-12-16T10:27:41.767Z,100837.78
2022-12-16T10:30:34.454Z,100831.38
2022-12-16T10:33:34.476Z,100836.00
2022-12-16T10:36:40.778Z,100836.06
2022-12-16T10:40:23.659Z,100847.22
2022-12-16T10:43:34.661Z,100840.88
2022-12-16T10:46:39.854Z,100845.72
2022-12-16T10:49:35.195Z,100840.50
2022-12-16T10:52:25.424Z,100846.91
2022-12-16T10:55:49.336Z,100845.50
2022-12-16T10:59:09.370Z,100851.88
2022-12-16T11:01:59.045Z,100850.28
2022-12-16T11:04:57.033Z,100855.34
2022-12-16T11:08:03.340Z,100849.94
2022-12-16T11:11:02.447Z,100846.53
2022-12-16T11:13:56.372Z,100857.66
2022-12-16T11:16:48.214Z,100847.88
2022-12-16T11:19:50.182Z,100856.06
2022-12-16T11:22:42.847Z,100856.91
2022-12-16T11:25:40.525Z,100862.00
2022-12-16T11:28:36.944Z,100857.03
2022-12-16T11:31:35.462Z,100859.31
2022-12-16T11:34:24.653Z,100866.72
2022-12-16T11:37:21.017Z,100868.41
2022-12-16T11:40:12.713Z,100874.31
2022-12-16T11:43:10.534Z,100865.56
2022-12-16T11:46:03.347Z,100870.03
2022-12-16T11:49:24.714Z,100872.75
2022-12-16T11:52:39.214Z,100876.19
2022-12-16T11:56:06.606Z,100877.16
2022-12-16T11:59:21.819Z,100870.78
2022-12-16T12:02:22.054Z,100872.66
2022-12-16T12:05:10.893Z,100867.81
2022-12-16T12:08:38.512Z,100864.41
2022-12-16T12:11:46.927Z,100872.78
2022-12-16T12:15:21.121Z,100869.25
2022-12-16T12:18:50.965Z,100878.34
2022-12-16T12:22:07.592Z,100868.41
2022-12-16T12:26:13.915Z,100876.81
2022-12-16T12:29:25.593Z,100882.50
2022-12-16T12:33:04.662Z,100897.75
2022-12-16T12:36:38.051Z,100892.19
2022-12-16T12:40:17.213Z,100900.09
2022-12-16T12:43:14.946Z,100889.56
2022-12-16T12:46:33.803Z,100898.81
2022-12-16T12:49:57.802Z,100899.88
2022-12-16T12:53:42.418Z,100903.44
2022-12-16T12:56:48.714Z,100906.03
2022-12-16T13:00:05.505Z,100912.53
2022-12-16T13:03:17.961Z,100917.13
2022-12-16T13:06:09.369Z,100916.31
2022-12-16T13:09:16.631Z,100923.53
2022-12-16T13:12:27.954Z,100923.06
2022-12-16T13:15:25.016Z,100929.19
2022-12-16T13:18:22.740Z,100928.84
2022-12-16T13:21:17.874Z,100926.84
2022-12-16T13:24:06.686Z,100924.94
2022-12-16T13:26:55.185Z,100933.81
2022-12-16T13:29:50.350Z,100940.78
2022-12-16T13:32:44.569Z,100937.72
2022-12-16T13:35:37.182Z,100944.31
2022-12-16T13:38:40.795Z,100950.69
2022-12-16T13:42:04.721Z,100951.28
2022-12-16T13:45:02.374Z,100949.88
2022-12-16T13:48:13.919Z,100959.91
2022-12-16T13:51:17.865Z,100969.81
2022-12-16T13:54:12.590Z,100968.63
2022-12-16T13:57:08.652Z,100971.13
2022-12-16T14:00:01.965Z,100974.31
2022-12-16T14:03:02.453Z,100978.22
2022-12-16T14:06:02.386Z,100986.63
2022-12-16T14:08:57.458Z,100984.81
2022-12-16T14:12:20.109Z,100992.97
2022-12-16T14:15:31.737Z,100998.63
2022-12-16T14:19:04.942Z,100987.28
2022-12-16T14:22:40.956Z,100992.09
2022-12-16T14:25:49.066Z,101002.97
2022-12-16T14:28:58.302Z,101011.94
2022-12-16T14:32:08.231Z,101012.66
2022-12-16T14:34:57.005Z,101025.03
2022-12-16T14:37:57.331Z,101015.69
2022-12-16T14:40:51.986Z,101017.34
2022-12-16T14:43:44.877Z,101028.91
2022-12-16T14:46:50.529Z,101032.06
2022-12-16T14:49:49.218Z,101036.56
2022-12-16T14:52:45.184Z,101036.63
2022-12-16T14:55:48.825Z,101035.56
2022-12-16T14:58:43.473Z,101032.63
2022-12-16T15:01:43.587Z,101037.09
2022-12-16T15:04:41.633Z,101047.34
2022-12-16T15:07:34.275Z,101048.03
2022-12-16T15:10:24.354Z,101052.66
2022-12-16T15:13:11.699Z,101057.47
2022-12-16T15:16:09.481Z,101061.63
2022-12-16T15:19:07.501Z,101064.13
2022-12-16T15:21:56.241Z,101057.22
2022-12-16T15:24:49.392Z,101070.19
2022-12-16T15:27:37.907Z,101070.28
2022-12-16T15:31:01.376Z,101070.06
2022-12-16T15:33:57.169Z,101069.66
2022-12-16T15:36:56.032Z,101085.97
2022-12-16T15:40:00.793Z,101086.44
2022-12-16T15:42:52.590Z,101088.06
2022-12-16T15:45:51.361Z,101093.75
2022-12-16T15:48:52.872Z,101102.13
2022-12-16T15:51:45.696Z,101101.50
2022-12-16T15:54:43.198Z,101109.03
2022-12-16T15:57:55.351Z,101110.03
2022-12-16T16:00:50.248Z,101115.09
2022-12-16T16:04:06.040Z,101106.16
2022-12-16T16:06:55.496Z,101115.97
2022-12-16T16:09:52.381Z,101119.50
2022-12-16T16:12:44.866Z,101125.75
2022-12-16T16:15:34.342Z,101127.66
2022-12-16T16:18:25.084Z,101137.69
2022-12-16T16:21:13.632Z,101129.97
2022-12-16T16:24:02.420Z,101133.53
2022-12-16T16:26:51.046Z,101134.38
2022-12-16T16:29:39.489Z,101132.47
2022-12-16T16:32:28.947Z,101140.00
2022-12-16T16:35:31.082Z,101149.28
2022-12-16T16:38:19.488Z,101142.31
2022-12-16T16:41:08.060Z,101149.44
2022-12-16T16:43:56.580Z,101156.38
2022-12-16T16:46:59.968Z,101164.50
2022-12-16T16:50:19.270Z,101167.44
2022-12-16T16:53:08.333Z,101166.41
2022-12-16T16:55:56.816Z,101163.28
2022-12-16T16:58:52.470Z,101154.31
2022-12-16T17:01:40.992Z,101163.97
2022-12-16T17:04:29.903Z,101166.06
2022-12-16T17:07:18.691Z,101166.88
2022-12-16T17:10:07.141Z,101165.25
2022-12-16T17:12:58.684Z,101170.66
2022-12-16T17:15:56.293Z,101172.56
2022-12-16T17:18:50.530Z,101167.97
2022-12-16T17:21:41.130Z,101170.06
2022-12-16T17:24:29.600Z,101172.97
2022-12-16T17:27:39.656Z,101173.72
2022-12-16T17:30:46.979Z,101179.19
2022-12-16T17:33:36.691Z,101185.06
2022-12-16T17:36:27.302Z,101179.03
2022-12-16T17:39:19.958Z,101188.84
2022-12-16T17:42:10.040Z,101194.69
2022-12-16T17:44:58.624Z,101199.69
2022-12-16T17:47:47.364Z,101199.69
2022-12-16T17:50:37.878Z,101205.94
2022-12-16T17:53:26.690Z,101201.56
2022-12-16T17:56:14.074Z,101206.78
2022-12-16T17:59:05.645Z,101213.84
2022-12-16T18:01:54.374Z,101207.59
2022-12-16T18:04:43.104Z,101211.59
2022-12-16T18:07:31.538Z,101215.13
2022-12-16T18:10:19.997Z,101218.91
2022-12-16T18:13:09.733Z,101227.25
2022-12-16T18:15:57.457Z,101228.31
2022-12-16T18:18:46.510Z,101233.13
2022-12-16T18:21:35.387Z,101230.41
2022-12-16T18:24:28.358Z,101232.91
2022-12-16T18:27:17.214Z,101234.78
2022-12-16T18:30:07.283Z,101240.44
2022-12-16T18:32:56.700Z,101236.88
2022-12-16T18:35:45.996Z,101237.72
2022-12-16T18:38:34.809Z,101242.31
2022-12-16T18:41:34.102Z,101245.03
2022-12-16T18:44:25.772Z,101247.75
2022-12-16T18:47:14.511Z,101255.88
2022-12-16T18:50:03.199Z,101258.38
2022-12-16T18:52:51.623Z,101263.41
2022-12-16T18:55:40.580Z,101262.13
2022-12-16T18:58:50.252Z,101267.97
2022-12-16T19:01:38.540Z,101270.88
2022-12-16T19:04:26.993Z,101271.34
2022-12-16T19:07:15.456Z,101268.00
2022-12-16T19:10:04.134Z,101272.63
2022-12-16T19:12:51.119Z,101272.81
2022-12-16T19:15:41.607Z,101272.81
2022-12-16T19:18:31.049Z,101267.59
2022-12-16T19:21:19.473Z,101282.25
2022-12-16T19:24:08.167Z,101288.94
2022-12-16T19:26:58.063Z,101281.78
2022-12-16T19:29:46.669Z,101287.66
2022-12-16T19:32:35.478Z,101291.41
2022-12-16T19:35:24.712Z,101289.97
2022-12-16T19:38:12.915Z,101295.41
2022-12-16T19:41:14.257Z,101298.09
2022-12-16T19:44:06.000Z,101301.03
2022-12-16T19:46:56.284Z,101303.53
2022-12-16T19:49:45.265Z,101311.06
2022-12-16T19:52:33.983Z,101311.06
2022-12-16T19:55:23.066Z,101314.59
2022-12-16T19:58:11.917Z,101320.88
2022-12-16T20:01:00.873Z,101321.91
2022-12-16T20:03:50.303Z,101327.34
2022-12-16T20:06:39.251Z,101330.06
2022-12-16T20:09:28.100Z,101334.66
2022-12-16T20:12:17.335Z,101340.06
2022-12-16T20:15:05.727Z,101329.22
2022-12-16T20:21:04.724Z,101351.75
2022-12-16T20:23:53.500Z,101351.75
2022-12-16T20:26:42.359Z,101362.41
2022-12-16T20:29:30.518Z,101357.19
2022-12-16T20:32:19.253Z,101358.25
2022-12-16T20:35:07.864Z,101360.97
2022-12-16T20:37:57.975Z,101368.66
2022-12-16T20:40:46.675Z,101370.34
2022-12-16T20:43:35.341Z,101367.38
2022-12-16T20:46:24.001Z,101369.28
2022-12-16T20:49:12.591Z,101374.91
2022-12-16T20:52:01.234Z,101375.75
2022-12-16T20:54:50.047Z,101373.25
2022-12-16T20:57:38.649Z,101364.28
2022-12-16T21:00:28.057Z,101379.06
2022-12-16T21:03:16.968Z,101379.72
2022-12-16T21:06:05.764Z,101381.59
2022-12-16T21:08:54.267Z,101382.41
2022-12-16T21:11:44.753Z,101386.81
2022-12-16T21:14:33.356Z,101389.09
2022-12-16T21:17:21.813Z,101396.41
2022-12-16T21:20:10.272Z,101406.44
2022-12-16T21:22:58.797Z,101407.06
2022-12-16T21:25:47.610Z,101406.00
2022-12-16T21:28:36.296Z,101417.88
2022-12-16T21:31:25.200Z,101408.28
2022-12-16T21:34:13.980Z,101413.72
2022-12-16T21:37:02.657Z,101415.38
2022-12-16T21:39:51.372Z,101421.00
2022-12-16T21:42:44.095Z,101414.53
2022-12-16T21:45:33.610Z,101419.75
2022-12-16T21:48:22.209Z,101422.88
2022-12-16T21:51:12.639Z,101423.94
2022-12-16T21:54:06.367Z,101433.75
2022-12-16T21:56:57.027Z,101434.38
2022-12-16T21:59:46.082Z,101437.06
2022-12-16T22:02:34.553Z,101436.06
2022-12-16T22:05:23.507Z,101440.41
2022-12-16T22:08:11.971Z,101437.69
2022-12-16T22:11:00.630Z,101441.03
2022-12-16T22:13:49.574Z,101440.22
2022-12-16T22:16:38.527Z,101440.63
2022-12-16T22:19:41.119Z,101447.69
2022-12-16T22:22:30.159Z,101447.09
2022-12-16T22:25:18.641Z,101438.72
2022-12-16T22:28:05.247Z,101447.91
2022-12-16T22:30:53.868Z,101447.09
2022-12-16T22:33:45.085Z,101448.16
2022-12-16T22:36:33.852Z,101453.97
2022-12-16T22:39:22.564Z,101452.09
2022-12-16T22:42:12.555Z,101460.44
2022-12-16T22:45:01.452Z,101457.72
2022-12-16T22:47:50.816Z,101455.63
2022-12-16T22:50:40.680Z,101457.28
2022-12-16T22:53:33.057Z,101467.94
2022-12-16T22:56:21.674Z,101474.19
2022-12-16T22:59:10.478Z,101468.34
2022-12-16T23:01:59.077Z,101471.06
2022-12-16T23:04:48.022Z,101481.94
2022-12-16T23:07:34.701Z,101482.97
2022-12-16T23:10:24.683Z,101480.88
2022-12-16T23:13:13.065Z,101474.41
2022-12-16T23:16:01.790Z,101475.66
2022-12-16T23:18:50.727Z,101480.88
2022-12-16T23:21:40.494Z,101483.59
2022-12-16T23:24:29.992Z,101486.09
2022-12-16T23:27:18.614Z,101475.22
2022-12-16T23:30:07.388Z,101480.47
2022-12-16T23:32:54.333Z,101473.97
2022-12-16T23:35:44.946Z,101481.50
2022-12-16T23:38:33.438Z,101475.03
2022-12-16T23:41:21.795Z,101475.84
2022-12-16T23:44:10.825Z,101479.41
2022-12-16T23:46:59.847Z,101491.50
2022-12-16T23:49:48.627Z,101478.13
2022-12-16T23:52:37.089Z,101489.84
2022-12-16T23:55:26.584Z,101487.94
2022-12-16T23:58:25.759Z,101483.75
